createdAt,value
2023-04-09T00:01:03.460Z,7.90
2023-04-09T00:03:29.955Z,7.77
2023-04-09T00:05:56.637Z,7.73
2023-04-09T00:08:26.211Z,8.07
2023-04-09T00:10:53.520Z,8.16
2023-04-09T00:13:25.452Z,8.27
2023-04-09T00:16:02.516Z,7.73
2023-04-09T00:18:28.988Z,7.89
2023-04-09T00:20:55.667Z,7.96
2023-04-09T00:23:22.174Z,7.79
2023-04-09T00:25:48.737Z,7.83
2023-04-09T00:28:15.885Z,8.17
2023-04-09T00:30:42.422Z,8.15
2023-04-09T00:33:08.866Z,7.81
2023-04-09T00:35:35.715Z,7.48
2023-04-09T00:38:02.213Z,7.56
2023-04-09T00:40:28.822Z,7.36
2023-04-09T00:42:55.507Z,7.72
2023-04-09T00:45:21.980Z,7.84
2023-04-09T00:47:48.600Z,7.67
2023-04-09T00:50:16.410Z,7.95
2023-04-09T00:52:42.992Z,7.86
2023-04-09T00:55:10.076Z,7.86
2023-04-09T00:57:36.529Z,7.70
2023-04-09T01:00:04.645Z,8.08
2023-04-09T01:02:31.417Z,7.86
2023-04-09T01:04:58.332Z,7.91
2023-04-09T01:07:31.562Z,8.38
2023-04-09T01:10:08.843Z,8.35
2023-04-09T01:13:06.313Z,8.09
2023-04-09T01:15:36.898Z,8.11
2023-04-09T01:18:09.848Z,8.23
2023-04-09T01:20:43.497Z,8.41
2023-04-09T01:23:27.633Z,8.46
2023-04-09T01:26:09.650Z,8.38
2023-04-09T01:28:43.782Z,8.17
2023-04-09T01:31:18.586Z,7.87
2023-04-09T01:33:45.822Z,8.08
2023-04-09T01:36:13.453Z,8.00
2023-04-09T01:38:41.861Z,7.71
2023-04-09T01:41:11.275Z,7.75
2023-04-09T01:43:38.368Z,7.92
2023-04-09T01:46:04.888Z,7.96
2023-04-09T01:48:31.883Z,8.07
2023-04-09T01:50:58.927Z,7.83
2023-04-09T01:53:28.369Z,8.11
2023-04-09T01:55:56.791Z,8.34
2023-04-09T01:58:24.969Z,7.92
2023-04-09T02:00:52.219Z,8.04
2023-04-09T02:03:23.933Z,7.76
2023-04-09T02:06:00.850Z,8.26
2023-04-09T02:08:28.166Z,8.32
2023-04-09T02:10:58.364Z,8.07
2023-04-09T02:13:27.222Z,8.03
2023-04-09T02:15:54.512Z,7.99
2023-04-09T02:18:31.062Z,8.06
2023-04-09T02:20:58.631Z,8.03
2023-04-09T02:23:26.048Z,8.01
2023-04-09T02:25:53.657Z,7.97
2023-04-09T02:28:20.217Z,7.97
2023-04-09T02:30:46.736Z,8.26
2023-04-09T02:33:13.259Z,8.16
2023-04-09T02:35:39.739Z,8.29
2023-04-09T02:38:06.361Z,8.00
2023-04-09T02:40:32.812Z,8.09
2023-04-09T02:42:59.445Z,8.12
2023-04-09T02:45:25.995Z,8.29
2023-04-09T02:47:52.555Z,8.48
2023-04-09T02:50:19.157Z,8.48
2023-04-09T02:52:47.470Z,7.95
2023-04-09T02:55:14.626Z,8.05
2023-04-09T02:57:41.561Z,7.98
2023-04-09T03:00:08.769Z,8.02
2023-04-09T03:02:35.497Z,8.31
2023-04-09T03:05:02.354Z,7.87
2023-04-09T03:07:28.877Z,7.69
2023-04-09T03:09:55.326Z,7.72
2023-04-09T03:12:21.777Z,7.80
2023-04-09T03:14:48.225Z,7.92
2023-04-09T03:17:14.712Z,7.82
2023-04-09T03:19:41.245Z,7.90
2023-04-09T03:22:07.796Z,8.27
2023-04-09T03:24:34.304Z,8.49
2023-04-09T03:27:00.784Z,8.29
2023-04-09T03:29:27.240Z,7.87
2023-04-09T03:31:53.720Z,8.21
2023-04-09T03:34:20.269Z,8.47
2023-04-09T03:36:46.737Z,8.24
2023-04-09T03:39:13.156Z,8.00
2023-04-09T03:41:39.615Z,8.00
2023-04-09T03:44:06.079Z,8.11
2023-04-09T03:46:32.599Z,7.85
2023-04-09T03:48:59.089Z,8.05
2023-04-09T03:51:25.581Z,8.23
2023-04-09T03:53:52.009Z,8.41
2023-04-09T03:56:18.488Z,8.29
2023-04-09T03:58:44.949Z,8.27
2023-04-09T04:01:11.463Z,8.09
2023-04-09T04:03:38.057Z,8.20
2023-04-09T04:06:04.710Z,8.01
2023-04-09T04:08:31.182Z,7.78
2023-04-09T04:11:03.803Z,8.08
2023-04-09T04:13:30.394Z,8.02
2023-04-09T04:15:56.889Z,8.30
2023-04-09T04:18:23.372Z,8.39
2023-04-09T04:20:49.844Z,7.90
2023-04-09T04:23:16.312Z,8.00
2023-04-09T04:25:42.836Z,7.84
2023-04-09T04:28:09.307Z,8.19
2023-04-09T04:30:35.838Z,8.43
2023-04-09T04:33:02.368Z,8.32
2023-04-09T04:35:28.942Z,8.20
2023-04-09T04:37:55.450Z,8.12
2023-04-09T04:40:22.008Z,8.11
2023-04-09T04:42:48.491Z,7.96
2023-04-09T04:45:14.989Z,8.12
2023-04-09T04:47:41.517Z,8.06
2023-04-09T04:50:08.886Z,7.96
2023-04-09T04:52:36.347Z,8.11
2023-04-09T04:55:02.806Z,8.28
2023-04-09T04:57:29.269Z,7.94
2023-04-09T04:59:55.732Z,8.46
2023-04-09T05:02:22.291Z,8.25
2023-04-09T05:04:48.787Z,8.04
2023-04-09T05:07:15.595Z,8.56
2023-04-09T05:09:42.946Z,8.01
2023-04-09T05:12:09.416Z,8.35
2023-04-09T05:14:35.845Z,8.29
2023-04-09T05:17:02.544Z,8.36
2023-04-09T05:19:29.160Z,8.53
2023-04-09T05:21:55.606Z,8.32
2023-04-09T05:24:22.050Z,8.43
2023-04-09T05:26:48.508Z,8.47
2023-04-09T05:29:15.037Z,8.67
2023-04-09T05:31:43.053Z,8.45
2023-04-09T05:34:09.612Z,8.48
2023-04-09T05:36:36.317Z,8.60
2023-04-09T05:39:02.977Z,9.02
2023-04-09T05:41:29.465Z,8.80
2023-04-09T05:43:55.938Z,8.94
2023-04-09T05:46:22.427Z,9.18
2023-04-09T05:48:48.949Z,9.08
2023-04-09T05:51:15.792Z,8.97
2023-04-09T05:53:42.836Z,9.00
2023-04-09T05:56:16.117Z,9.02
2023-04-09T05:58:43.181Z,9.03
2023-04-09T06:01:10.277Z,8.94
2023-04-09T06:03:36.978Z,9.02
2023-04-09T06:06:03.641Z,8.89
2023-04-09T06:08:30.216Z,8.83
2023-04-09T06:10:56.739Z,9.01
2023-04-09T06:13:23.204Z,9.10
2023-04-09T06:15:49.940Z,9.02
2023-04-09T06:18:16.521Z,9.23
2023-04-09T06:20:42.952Z,9.35
2023-04-09T06:23:09.401Z,9.22
2023-04-09T06:25:36.470Z,9.47
2023-04-09T06:28:03.259Z,8.97
2023-04-09T06:30:31.002Z,9.10
2023-04-09T06:32:57.666Z,9.25
2023-04-09T06:35:24.180Z,9.63
2023-04-09T06:37:50.907Z,9.56
2023-04-09T06:40:17.459Z,9.12
2023-04-09T06:42:43.964Z,9.03
2023-04-09T06:45:10.638Z,9.08
2023-04-09T06:47:37.245Z,9.56
2023-04-09T06:50:04.097Z,9.36
2023-04-09T06:52:30.666Z,9.32
2023-04-09T06:54:57.137Z,9.12
2023-04-09T06:57:23.701Z,9.03
2023-04-09T06:59:50.371Z,9.25
2023-04-09T07:02:17.036Z,9.27
2023-04-09T07:04:43.726Z,9.46
2023-04-09T07:07:10.593Z,9.08
2023-04-09T07:09:37.057Z,9.55
2023-04-09T07:12:03.588Z,9.53
2023-04-09T07:14:30.168Z,9.60
2023-04-09T07:16:56.595Z,9.45
2023-04-09T07:19:23.085Z,9.66
2023-04-09T07:21:49.510Z,9.99
2023-04-09T07:24:16.110Z,9.86
2023-04-09T07:26:42.776Z,9.31
2023-04-09T07:29:09.342Z,9.81
2023-04-09T07:31:36.253Z,9.72
2023-04-09T07:34:02.782Z,9.78
2023-04-09T07:36:29.260Z,9.63
2023-04-09T07:38:55.736Z,9.37
2023-04-09T07:41:22.259Z,9.97
2023-04-09T07:43:48.785Z,9.63
2023-04-09T07:46:20.350Z,9.83
2023-04-09T07:48:48.330Z,9.65
2023-04-09T07:51:15.417Z,9.60
2023-04-09T07:53:41.940Z,9.93
2023-04-09T07:56:08.478Z,9.97
2023-04-09T07:58:35.338Z,9.65
2023-04-09T08:01:01.779Z,10.39
2023-04-09T08:03:28.574Z,10.03
2023-04-09T08:05:55.232Z,10.91
2023-04-09T08:08:21.831Z,10.67
2023-04-09T08:10:48.282Z,11.05
2023-04-09T08:13:14.736Z,10.04
2023-04-09T08:15:41.517Z,10.59
2023-04-09T08:18:08.370Z,11.15
2023-04-09T08:20:34.890Z,11.31
2023-04-09T08:23:01.880Z,11.13
2023-04-09T08:25:28.601Z,10.98
2023-04-09T08:27:55.043Z,11.53
2023-04-09T08:30:21.585Z,12.03
2023-04-09T08:32:48.557Z,12.18
2023-04-09T08:35:15.949Z,11.71
2023-04-09T08:37:43.334Z,11.60
2023-04-09T08:40:10.125Z,11.54
2023-04-09T08:42:37.429Z,11.74
2023-04-09T08:45:05.441Z,12.03
2023-04-09T08:47:33.440Z,12.18
2023-04-09T08:49:59.975Z,12.12
2023-04-09T08:52:35.734Z,12.10
2023-04-09T08:55:02.406Z,11.42
2023-04-09T08:57:28.971Z,11.90
2023-04-09T08:59:55.561Z,11.67
2023-04-09T09:02:24.181Z,11.67
2023-04-09T09:04:50.949Z,11.99
2023-04-09T09:07:17.754Z,12.16
2023-04-09T09:10:02.489Z,12.41
2023-04-09T09:12:39.549Z,12.59
2023-04-09T09:15:25.563Z,11.42
2023-04-09T09:17:57.223Z,11.34
2023-04-09T09:20:24.593Z,11.36
2023-04-09T09:22:54.560Z,11.81
2023-04-09T09:25:26.115Z,12.09
2023-04-09T09:27:53.923Z,12.03
2023-04-09T09:30:25.992Z,11.87
2023-04-09T09:33:15.723Z,11.49
2023-04-09T09:35:54.400Z,11.59
2023-04-09T09:38:22.449Z,11.83
2023-04-09T09:40:49.580Z,11.69
2023-04-09T09:43:16.127Z,11.84
2023-04-09T09:45:43.892Z,12.63
2023-04-09T09:48:11.786Z,12.26
2023-04-09T09:50:41.806Z,12.27
2023-04-09T09:53:11.113Z,12.31
2023-04-09T09:55:49.075Z,12.17
2023-04-09T09:58:23.695Z,11.99
2023-04-09T10:00:51.611Z,11.91
2023-04-09T10:03:25.403Z,12.15
2023-04-09T10:05:53.508Z,12.28
2023-04-09T10:08:21.785Z,13.07
2023-04-09T10:10:48.622Z,12.97
2023-04-09T10:13:26.949Z,13.02
2023-04-09T10:15:53.925Z,13.10
2023-04-09T10:18:21.247Z,13.02
2023-04-09T10:21:02.051Z,12.63
2023-04-09T10:23:39.508Z,12.33
2023-04-09T10:26:06.378Z,12.20
2023-04-09T10:28:33.284Z,12.51
2023-04-09T10:30:59.894Z,12.68
2023-04-09T10:33:28.100Z,13.12
2023-04-09T10:35:55.891Z,12.95
2023-04-09T10:38:52.438Z,13.86
2023-04-09T10:41:29.650Z,13.05
2023-04-09T10:43:57.508Z,12.51
2023-04-09T10:46:35.059Z,12.62
2023-04-09T10:49:13.751Z,12.22
2023-04-09T10:51:41.878Z,12.24
2023-04-09T10:54:33.504Z,12.55
2023-04-09T10:57:09.132Z,12.71
2023-04-09T10:59:41.087Z,12.45
2023-04-09T11:02:09.513Z,12.45
2023-04-09T11:04:42.097Z,12.72
2023-04-09T11:07:09.018Z,13.42
2023-04-09T11:09:36.496Z,12.98
2023-04-09T11:12:03.783Z,13.14
2023-04-09T11:14:30.615Z,13.40
2023-04-09T11:16:57.154Z,13.02
2023-04-09T11:19:23.605Z,13.31
2023-04-09T11:21:50.283Z,13.31
2023-04-09T11:24:18.879Z,13.46
2023-04-09T11:26:45.965Z,13.10
2023-04-09T11:29:12.961Z,13.35
2023-04-09T11:31:39.456Z,13.88
2023-04-09T11:34:05.909Z,13.74
2023-04-09T11:36:35.835Z,15.16
2023-04-09T11:39:02.636Z,15.46
2023-04-09T11:41:38.821Z,14.48
2023-04-09T11:44:05.360Z,15.50
2023-04-09T11:46:35.675Z,15.37
2023-04-09T11:49:03.169Z,15.03
2023-04-09T11:51:33.228Z,15.06
2023-04-09T11:54:03.584Z,14.34
2023-04-09T11:56:31.223Z,14.61
2023-04-09T11:58:58.046Z,15.08
2023-04-09T12:01:24.710Z,14.45
2023-04-09T12:03:55.497Z,13.68
2023-04-09T12:06:23.050Z,12.90
2023-04-09T12:08:56.409Z,14.37
2023-04-09T12:11:28.756Z,13.92
2023-04-09T12:14:04.719Z,14.54
2023-04-09T12:16:32.626Z,14.52
2023-04-09T12:19:03.610Z,15.16
2023-04-09T12:21:53.066Z,16.01
2023-04-09T12:24:21.679Z,14.82
2023-04-09T12:26:48.854Z,14.63
2023-04-09T12:29:16.596Z,15.01
2023-04-09T12:31:43.655Z,14.04
2023-04-09T12:34:10.328Z,14.01
2023-04-09T12:36:38.591Z,14.81
2023-04-09T12:39:05.393Z,15.02
2023-04-09T12:41:31.875Z,15.69
2023-04-09T12:43:58.448Z,16.16
2023-04-09T12:46:25.902Z,15.23
2023-04-09T12:48:52.710Z,14.34
2023-04-09T12:51:19.305Z,14.68
2023-04-09T12:53:46.085Z,15.52
2023-04-09T12:56:12.554Z,15.48
2023-04-09T12:58:39.004Z,15.51
2023-04-09T13:01:06.020Z,15.43
2023-04-09T13:03:32.837Z,13.71
2023-04-09T13:05:59.477Z,13.90
2023-04-09T13:08:26.168Z,13.98
2023-04-09T13:10:52.759Z,14.30
2023-04-09T13:13:19.256Z,14.17
2023-04-09T13:15:46.310Z,14.60
2023-04-09T13:18:13.427Z,14.42
2023-04-09T13:20:40.068Z,14.64
2023-04-09T13:23:06.620Z,14.62
2023-04-09T13:25:33.053Z,14.93
2023-04-09T13:27:59.591Z,14.53
2023-04-09T13:30:26.060Z,14.93
2023-04-09T13:32:52.668Z,14.90
2023-04-09T13:35:19.270Z,14.60
2023-04-09T13:37:45.776Z,14.87
2023-04-09T13:40:12.589Z,14.70
2023-04-09T13:42:39.081Z,14.04
2023-04-09T13:45:06.403Z,14.51
2023-04-09T13:47:33.042Z,15.32
2023-04-09T13:49:59.535Z,14.69
2023-04-09T13:52:29.261Z,15.17
2023-04-09T13:54:56.224Z,14.43
2023-04-09T13:57:22.707Z,14.58
2023-04-09T13:59:49.705Z,14.30
2023-04-09T14:02:18.124Z,14.62
2023-04-09T14:04:44.807Z,14.11
2023-04-09T14:07:11.649Z,13.96
2023-04-09T14:09:38.074Z,14.67
2023-04-09T14:12:04.720Z,14.40
2023-04-09T14:14:31.241Z,14.66
2023-04-09T14:16:57.712Z,14.37
2023-04-09T14:19:24.249Z,14.16
2023-04-09T14:21:53.285Z,14.54
2023-04-09T14:24:22.927Z,14.35
2023-04-09T14:26:51.460Z,14.43
2023-04-09T14:29:17.895Z,14.47
2023-04-09T14:31:44.442Z,14.64
2023-04-09T14:34:10.970Z,13.91
2023-04-09T14:36:38.566Z,13.53
2023-04-09T14:39:05.160Z,13.88
2023-04-09T14:41:34.154Z,13.95
2023-04-09T14:44:00.782Z,13.92
2023-04-09T14:46:27.676Z,14.39
2023-04-09T14:48:54.475Z,14.40
2023-04-09T14:51:21.199Z,14.31
2023-04-09T14:53:47.656Z,14.25
2023-04-09T14:56:14.144Z,14.24
2023-04-09T14:58:40.713Z,14.19
2023-04-09T15:01:07.298Z,13.98
2023-04-09T15:03:33.875Z,13.94
2023-04-09T15:06:00.614Z,14.33
2023-04-09T15:08:27.178Z,14.33
2023-04-09T15:10:53.660Z,14.41
2023-04-09T15:13:20.207Z,14.72
2023-04-09T15:15:46.639Z,14.94
2023-04-09T15:18:13.148Z,14.12
2023-04-09T15:20:40.471Z,14.00
2023-04-09T15:23:07.052Z,14.23
2023-04-09T15:25:33.479Z,13.59
2023-04-09T15:28:00.026Z,14.53
2023-04-09T15:30:26.582Z,14.71
2023-04-09T15:32:53.249Z,14.27
2023-04-09T15:35:24.934Z,14.46
2023-04-09T15:37:51.923Z,14.45
2023-04-09T15:40:18.889Z,14.15
2023-04-09T15:42:45.368Z,13.02
2023-04-09T15:45:14.549Z,13.36
2023-04-09T15:47:41.042Z,13.53
2023-04-09T15:50:08.988Z,13.34
2023-04-09T15:52:35.718Z,13.67
2023-04-09T15:55:02.336Z,13.98
2023-04-09T15:57:28.930Z,14.27
2023-04-09T15:59:55.430Z,14.07
2023-04-09T16:02:23.472Z,13.60
2023-04-09T16:04:51.291Z,13.51
2023-04-09T16:07:17.799Z,13.91
2023-04-09T16:09:46.152Z,13.93
2023-04-09T16:12:12.784Z,13.86
2023-04-09T16:14:40.407Z,14.24
2023-04-09T16:17:07.072Z,14.21
2023-04-09T16:19:33.611Z,13.92
2023-04-09T16:22:00.076Z,14.02
2023-04-09T16:24:27.161Z,14.13
2023-04-09T16:26:53.596Z,13.92
2023-04-09T16:29:20.314Z,13.74
2023-04-09T16:31:46.874Z,13.63
2023-04-09T16:34:13.590Z,13.16
2023-04-09T16:36:41.562Z,13.53
2023-04-09T16:39:08.149Z,13.22
2023-04-09T16:41:36.961Z,13.06
2023-04-09T16:44:03.726Z,13.34
2023-04-09T16:46:30.321Z,12.92
2023-04-09T16:48:56.913Z,12.51
2023-04-09T16:51:23.372Z,12.98
2023-04-09T16:53:50.302Z,13.20
2023-04-09T16:56:17.339Z,12.94
2023-04-09T16:58:44.619Z,13.08
2023-04-09T17:01:11.074Z,13.01
2023-04-09T17:03:37.706Z,12.94
2023-04-09T17:06:04.842Z,12.45
2023-04-09T17:08:31.763Z,12.22
2023-04-09T17:11:04.260Z,12.65
2023-04-09T17:13:32.498Z,12.67
2023-04-09T17:15:58.994Z,12.67
2023-04-09T17:18:25.468Z,13.06
2023-04-09T17:20:52.219Z,12.99
2023-04-09T17:23:19.228Z,13.10
2023-04-09T17:25:46.529Z,12.46
2023-04-09T17:28:13.332Z,12.70
2023-04-09T17:30:39.902Z,12.48
2023-04-09T17:33:06.490Z,11.93
2023-04-09T17:35:33.087Z,12.04
2023-04-09T17:38:00.946Z,12.23
2023-04-09T17:40:28.104Z,11.69
2023-04-09T17:42:55.266Z,11.67
2023-04-09T17:45:21.791Z,11.65
2023-04-09T17:47:48.827Z,12.02
2023-04-09T17:50:15.479Z,11.80
2023-04-09T17:52:42.047Z,11.80
2023-04-09T17:55:11.677Z,11.39
2023-04-09T17:57:38.809Z,11.37
2023-04-09T18:00:05.988Z,11.21
2023-04-09T18:02:32.782Z,11.04
2023-04-09T18:05:00.567Z,11.18
2023-04-09T18:07:30.460Z,11.02
2023-04-09T18:09:57.093Z,10.72
2023-04-09T18:12:23.552Z,11.10
2023-04-09T18:14:50.531Z,11.06
2023-04-09T18:17:17.421Z,10.96
2023-04-09T18:19:44.035Z,10.46
2023-04-09T18:22:10.629Z,10.44
2023-04-09T18:24:37.405Z,10.76
2023-04-09T18:27:04.126Z,10.55
2023-04-09T18:29:31.447Z,10.13
2023-04-09T18:31:59.143Z,10.39
2023-04-09T18:34:25.871Z,10.18
2023-04-09T18:36:53.749Z,10.12
2023-04-09T18:39:22.784Z,9.95
2023-04-09T18:41:49.347Z,10.21
2023-04-09T18:44:16.470Z,9.94
2023-04-09T18:46:43.020Z,10.19
2023-04-09T18:49:09.982Z,9.85
2023-04-09T18:51:36.698Z,9.85
2023-04-09T18:54:03.295Z,9.72
2023-04-09T18:56:29.764Z,9.89
2023-04-09T18:58:56.700Z,9.88
2023-04-09T19:01:23.358Z,9.63
2023-04-09T19:03:50.030Z,9.49
2023-04-09T19:06:18.867Z,9.60
2023-04-09T19:08:46.405Z,9.53
2023-04-09T19:11:13.776Z,9.32
2023-04-09T19:13:40.517Z,9.53
2023-04-09T19:16:09.341Z,9.52
2023-04-09T19:18:37.363Z,9.15
2023-04-09T19:21:05.171Z,9.31
2023-04-09T19:23:34.044Z,9.33
2023-04-09T19:26:00.870Z,9.50
2023-04-09T19:28:27.612Z,9.05
2023-04-09T19:30:54.204Z,9.14
2023-04-09T19:33:21.686Z,9.31
2023-04-09T19:35:49.039Z,9.16
2023-04-09T19:38:16.175Z,9.31
2023-04-09T19:40:42.828Z,9.01
2023-04-09T19:43:09.870Z,9.00
2023-04-09T19:45:37.578Z,8.83
2023-04-09T19:48:05.456Z,9.04
2023-04-09T19:50:37.792Z,8.45
2023-04-09T19:53:05.930Z,8.96
2023-04-09T19:55:35.937Z,8.86
2023-04-09T19:58:03.245Z,8.73
2023-04-09T20:00:31.151Z,8.61
2023-04-09T20:02:57.861Z,8.86
2023-04-09T20:05:24.621Z,8.79
2023-04-09T20:07:52.597Z,8.73
2023-04-09T20:10:19.759Z,8.85
2023-04-09T20:12:50.530Z,8.62
2023-04-09T20:15:19.910Z,8.54
2023-04-09T20:17:48.121Z,8.73
2023-04-09T20:20:17.067Z,8.49
2023-04-09T20:22:47.397Z,8.37
2023-04-09T20:25:14.138Z,8.47
2023-04-09T20:27:40.690Z,8.46
2023-04-09T20:30:08.273Z,8.27
2023-04-09T20:32:36.925Z,8.18
2023-04-09T20:35:04.286Z,8.40
2023-04-09T20:37:30.880Z,8.48
2023-04-09T20:39:59.298Z,8.48
2023-04-09T20:42:25.760Z,8.17
2023-04-09T20:44:52.854Z,8.47
2023-04-09T20:47:21.020Z,8.23
2023-04-09T20:49:49.017Z,7.98
2023-04-09T20:52:15.526Z,7.96
2023-04-09T20:54:43.048Z,7.58
2023-04-09T20:57:11.050Z,7.72
2023-04-09T20:59:39.437Z,7.97
2023-04-09T21:02:06.074Z,7.84
2023-04-09T21:04:32.925Z,7.36
2023-04-09T21:06:59.405Z,7.55
2023-04-09T21:09:26.138Z,7.77
2023-04-09T21:11:52.682Z,7.70
2023-04-09T21:14:19.149Z,7.52
2023-04-09T21:16:45.824Z,7.62
2023-04-09T21:19:13.505Z,7.75
2023-04-09T21:21:40.515Z,7.86
2023-04-09T21:24:06.963Z,7.57
2023-04-09T21:26:45.241Z,7.31
2023-04-09T21:29:17.070Z,7.24
2023-04-09T21:31:43.580Z,7.40
2023-04-09T21:34:10.091Z,7.58
2023-04-09T21:36:39.258Z,7.48
2023-04-09T21:39:05.869Z,7.32
2023-04-09T21:41:32.348Z,7.38
2023-04-09T21:44:03.387Z,7.50
2023-04-09T21:46:29.910Z,7.52
2023-04-09T21:48:56.396Z,7.28
2023-04-09T21:51:22.881Z,7.35
2023-04-09T21:53:49.740Z,7.27
2023-04-09T21:56:16.196Z,7.19
2023-04-09T21:58:42.656Z,7.45
2023-04-09T22:01:18.812Z,7.16
2023-04-09T22:03:52.921Z,7.25
2023-04-09T22:06:19.754Z,7.37
2023-04-09T22:08:55.499Z,7.13
2023-04-09T22:11:28.124Z,7.24
2023-04-09T22:13:58.320Z,7.05
2023-04-09T22:16:25.233Z,7.30
2023-04-09T22:18:52.572Z,7.53
2023-04-09T22:21:19.259Z,7.22
2023-04-09T22:23:45.741Z,7.07
2023-04-09T22:26:12.241Z,7.17
2023-04-09T22:28:39.319Z,7.13
2023-04-09T22:31:06.514Z,7.18
2023-04-09T22:33:33.029Z,6.92
2023-04-09T22:35:59.791Z,6.94
2023-04-09T22:38:26.521Z,6.92
2023-04-09T22:40:55.702Z,6.92
2023-04-09T22:43:22.658Z,7.15
2023-04-09T22:45:51.979Z,7.10
2023-04-09T22:48:19.371Z,6.99
2023-04-09T22:50:46.153Z,7.15
2023-04-09T22:53:12.928Z,7.03
2023-04-09T22:55:39.479Z,6.96
2023-04-09T22:58:05.951Z,6.82
2023-04-09T23:00:32.405Z,6.81
2023-04-09T23:02:58.983Z,7.10
2023-04-09T23:05:25.703Z,6.89
2023-04-09T23:07:52.446Z,6.90
2023-04-09T23:10:19.233Z,6.89
2023-04-09T23:12:45.713Z,7.04
2023-04-09T23:15:12.235Z,7.02
2023-04-09T23:17:38.770Z,6.90
2023-04-09T23:20:06.820Z,6.85
2023-04-09T23:22:33.534Z,6.96
2023-04-09T23:24:59.979Z,7.16
2023-04-09T23:27:28.789Z,7.10
2023-04-09T23:29:56.409Z,6.99
2023-04-09T23:32:22.995Z,7.13
2023-04-09T23:34:50.324Z,7.04
2023-04-09T23:37:17.291Z,7.02
2023-04-09T23:39:44.003Z,7.16
2023-04-09T23:42:10.456Z,7.04
2023-04-09T23:44:36.875Z,7.30
2023-04-09T23:47:05.827Z,7.25
2023-04-09T23:49:32.453Z,7.30
2023-04-09T23:51:58.923Z,7.27
2023-04-09T23:54:25.366Z,7.25
2023-04-09T23:56:51.870Z,7.20
2023-04-09T23:59:18.699Z,7.26
